createdAt,value
2019-04-16T00:01:07.983Z,19.50
2019-04-16T00:03:41.408Z,18.27
2019-04-16T00:06:22.714Z,19.27
2019-04-16T00:09:02.827Z,21.07
2019-04-16T00:12:00.444Z,19.30
2019-04-16T00:14:36.678Z,20.03
2019-04-16T00:17:08.645Z,17.90
2019-04-16T00:19:40.607Z,17.40
2019-04-16T00:22:20.423Z,18.23
2019-04-16T00:24:54.414Z,18.60
2019-04-16T00:27:28.786Z,17.93
2019-04-16T00:30:04.106Z,19.50
2019-04-16T00:32:34.235Z,20.63
2019-04-16T00:35:06.214Z,19.00
2019-04-16T00:37:38.163Z,18.37
2019-04-16T00:40:10.312Z,18.00
2019-04-16T00:42:42.287Z,18.00
2019-04-16T00:45:14.240Z,19.10
2019-04-16T00:47:47.938Z,18.13
2019-04-16T00:50:20.065Z,20.83
2019-04-16T00:52:52.035Z,18.90
2019-04-16T00:55:23.959Z,19.10
2019-04-16T00:57:56.053Z,18.20
2019-04-16T01:00:30.649Z,19.47
2019-04-16T01:03:02.904Z,20.37
2019-04-16T01:05:35.292Z,20.27
2019-04-16T01:08:07.867Z,18.63
2019-04-16T01:10:39.789Z,19.67
2019-04-16T01:13:11.729Z,19.33
2019-04-16T01:15:43.709Z,20.67
2019-04-16T01:18:15.681Z,18.53
2019-04-16T01:20:47.654Z,19.40
2019-04-16T01:23:19.596Z,20.20
2019-04-16T01:25:55.355Z,21.00
2019-04-16T01:28:29.374Z,21.47
2019-04-16T01:31:19.340Z,20.47
2019-04-16T01:34:01.679Z,22.33
2019-04-16T01:36:45.693Z,18.67
2019-04-16T01:39:19.021Z,18.77
2019-04-16T01:41:53.265Z,22.87
2019-04-16T01:44:28.529Z,20.73
2019-04-16T01:47:03.337Z,20.70
2019-04-16T01:49:32.542Z,20.53
2019-04-16T01:52:04.472Z,20.70
2019-04-16T01:54:36.418Z,18.93
2019-04-16T01:57:08.349Z,19.57
2019-04-16T01:59:40.293Z,24.10
2019-04-16T02:02:15.568Z,20.33
2019-04-16T02:04:48.509Z,23.37
2019-04-16T02:07:19.931Z,19.50
2019-04-16T02:09:51.887Z,19.57
2019-04-16T02:12:23.848Z,20.00
2019-04-16T02:14:55.792Z,20.60
2019-04-16T02:17:27.814Z,20.07
2019-04-16T02:20:02.098Z,21.53
2019-04-16T02:22:33.622Z,22.07
2019-04-16T02:25:05.899Z,20.80
2019-04-16T02:27:37.828Z,21.00
2019-04-16T02:30:09.912Z,22.20
2019-04-16T02:32:41.856Z,23.27
2019-04-16T02:35:13.837Z,20.97
2019-04-16T02:37:45.774Z,20.33
2019-04-16T02:40:18.854Z,20.70
2019-04-16T02:42:51.092Z,23.60
2019-04-16T02:45:24.355Z,22.27
2019-04-16T02:47:56.505Z,20.60
2019-04-16T02:50:48.087Z,22.07
2019-04-16T02:53:39.999Z,22.77
2019-04-16T02:56:51.997Z,21.53
2019-04-16T02:59:29.070Z,22.00
2019-04-16T03:02:22.665Z,22.07
2019-04-16T03:05:00.210Z,19.83
2019-04-16T03:07:33.380Z,21.43
2019-04-16T03:10:05.424Z,23.70
2019-04-16T03:12:37.346Z,20.67
2019-04-16T03:15:09.801Z,21.40
2019-04-16T03:17:44.329Z,22.10
2019-04-16T03:20:16.723Z,21.33
2019-04-16T03:22:48.658Z,19.77
2019-04-16T03:25:20.615Z,20.63
2019-04-16T03:27:54.448Z,21.73
2019-04-16T03:30:26.414Z,22.70
2019-04-16T03:32:58.347Z,22.20
2019-04-16T03:35:30.317Z,19.77
2019-04-16T03:38:04.958Z,22.67
2019-04-16T03:40:36.131Z,21.63
2019-04-16T03:43:08.064Z,23.27
2019-04-16T03:45:40.531Z,21.87
2019-04-16T03:48:13.318Z,22.93
2019-04-16T03:50:45.347Z,20.87
2019-04-16T03:53:18.232Z,23.17
2019-04-16T03:55:50.360Z,21.03
2019-04-16T03:58:22.326Z,22.13
2019-04-16T04:00:54.289Z,21.97
2019-04-16T04:03:26.947Z,21.17
2019-04-16T04:05:59.017Z,20.53
2019-04-16T04:08:30.983Z,20.27
2019-04-16T04:11:02.995Z,20.00
2019-04-16T04:13:34.937Z,22.53
2019-04-16T04:16:07.104Z,20.33
2019-04-16T04:18:42.903Z,23.20
2019-04-16T04:21:12.912Z,20.67
2019-04-16T04:23:44.853Z,21.77
2019-04-16T04:26:16.842Z,22.07
2019-04-16T04:28:51.750Z,21.07
2019-04-16T04:31:22.644Z,20.93
2019-04-16T04:33:54.614Z,21.77
2019-04-16T04:36:28.168Z,19.50
2019-04-16T04:39:00.444Z,21.70
2019-04-16T04:41:32.375Z,24.37
2019-04-16T04:44:05.364Z,21.03
2019-04-16T04:46:37.672Z,22.17
2019-04-16T04:49:09.639Z,23.30
2019-04-16T04:51:43.410Z,23.87
2019-04-16T04:54:15.476Z,24.57
2019-04-16T04:56:47.415Z,22.83
2019-04-16T04:59:19.362Z,23.67
2019-04-16T05:01:51.301Z,21.90
2019-04-16T05:04:45.930Z,22.40
2019-04-16T05:07:18.517Z,21.27
2019-04-16T05:09:50.475Z,22.87
2019-04-16T05:12:22.603Z,21.50
2019-04-16T05:14:57.894Z,22.90
2019-04-16T05:17:29.629Z,22.90
2019-04-16T05:20:01.656Z,21.63
2019-04-16T05:22:33.629Z,22.20
2019-04-16T05:25:05.595Z,20.87
2019-04-16T05:27:41.219Z,22.80
2019-04-16T05:30:11.644Z,21.67
2019-04-16T05:32:43.600Z,21.37
2019-04-16T05:35:15.589Z,20.13
2019-04-16T05:37:48.618Z,20.77
2019-04-16T05:40:21.429Z,21.03
2019-04-16T05:42:55.811Z,22.87
2019-04-16T05:45:27.245Z,21.50
2019-04-16T05:47:59.299Z,23.13
2019-04-16T05:50:31.275Z,19.83
2019-04-16T05:53:05.496Z,20.50
2019-04-16T05:55:51.415Z,18.90
2019-04-16T05:58:23.547Z,19.67
2019-04-16T06:01:16.641Z,19.43
2019-04-16T06:03:52.859Z,21.03
2019-04-16T06:06:22.504Z,21.13
2019-04-16T06:08:56.142Z,22.80
2019-04-16T06:11:35.547Z,20.03
2019-04-16T06:14:34.075Z,20.47
2019-04-16T06:17:32.161Z,20.33
2019-04-16T06:20:13.247Z,20.63
2019-04-16T06:22:55.070Z,19.57
2019-04-16T06:25:52.161Z,19.40
2019-04-16T06:28:55.038Z,18.83
2019-04-16T06:31:36.208Z,19.73
2019-04-16T06:34:30.255Z,19.67
2019-04-16T06:37:20.403Z,20.60
2019-04-16T06:40:31.759Z,18.87
2019-04-16T06:43:07.925Z,20.20
2019-04-16T06:45:54.504Z,21.20
2019-04-16T06:48:30.546Z,21.40
2019-04-16T06:51:25.147Z,20.63
2019-04-16T06:54:34.802Z,21.20
2019-04-16T06:57:26.931Z,20.57
2019-04-16T07:00:18.410Z,21.25
2019-04-16T07:03:10.033Z,22.42
2019-04-16T07:06:04.808Z,22.35
2019-04-16T07:08:56.524Z,22.65
2019-04-16T07:11:28.885Z,22.22
2019-04-16T07:14:00.878Z,22.42
2019-04-16T07:16:32.844Z,24.35
2019-04-16T07:19:10.174Z,22.73
2019-04-16T07:21:40.446Z,22.98
2019-04-16T07:24:12.502Z,22.70
2019-04-16T07:26:47.865Z,23.18
2019-04-16T07:29:41.448Z,23.05
2019-04-16T07:32:30.029Z,23.85
2019-04-16T07:35:27.121Z,23.90
2019-04-16T07:38:18.125Z,23.35
2019-04-16T07:41:11.872Z,23.20
2019-04-16T07:44:11.379Z,23.75
2019-04-16T07:47:11.826Z,22.55
2019-04-16T07:50:00.022Z,23.25
2019-04-16T07:52:47.993Z,23.67
2019-04-16T07:55:39.557Z,23.05
2019-04-16T07:58:11.524Z,24.77
2019-04-16T08:00:43.520Z,23.22
2019-04-16T08:03:15.487Z,22.85
2019-04-16T08:05:47.465Z,25.10
2019-04-16T08:08:24.314Z,24.23
2019-04-16T08:10:56.103Z,25.27
2019-04-16T08:13:33.276Z,23.87
2019-04-16T08:16:03.102Z,23.25
2019-04-16T08:18:37.775Z,22.30
2019-04-16T08:21:12.208Z,23.60
2019-04-16T08:23:51.381Z,23.50
2019-04-16T08:26:20.450Z,24.02
2019-04-16T08:28:52.396Z,23.02
2019-04-16T08:31:26.942Z,23.42
2019-04-16T08:33:58.914Z,23.42
2019-04-16T08:36:30.903Z,22.85
2019-04-16T08:39:06.461Z,24.80
2019-04-16T08:41:38.091Z,22.48
2019-04-16T08:44:10.766Z,24.63
2019-04-16T08:46:42.913Z,23.60
2019-04-16T08:49:15.380Z,23.80
2019-04-16T08:51:47.467Z,24.45
2019-04-16T08:54:19.426Z,23.85
2019-04-16T08:56:51.409Z,24.30
2019-04-16T08:59:23.398Z,25.52
2019-04-16T09:01:55.391Z,22.40
2019-04-16T09:04:27.369Z,24.02
2019-04-16T09:07:10.472Z,25.05
2019-04-16T09:09:57.041Z,24.20
2019-04-16T09:12:27.596Z,24.43
2019-04-16T09:14:59.631Z,23.95
2019-04-16T09:17:38.141Z,23.57
2019-04-16T09:20:15.314Z,25.85
2019-04-16T09:22:49.421Z,23.57
2019-04-16T09:25:42.565Z,25.00
2019-04-16T09:28:34.189Z,23.73
2019-04-16T09:31:31.259Z,25.80
2019-04-16T09:34:30.851Z,25.10
2019-04-16T09:37:21.212Z,23.40
2019-04-16T09:40:31.156Z,24.20
2019-04-16T09:43:16.176Z,22.32
2019-04-16T09:45:39.753Z,24.43
2019-04-16T09:48:11.751Z,24.80
2019-04-16T09:50:47.521Z,25.08
2019-04-16T09:53:17.641Z,24.45
2019-04-16T09:55:50.605Z,26.00
2019-04-16T09:58:23.757Z,23.80
2019-04-16T10:01:04.714Z,24.20
2019-04-16T10:03:39.051Z,23.45
2019-04-16T10:06:11.155Z,23.87
2019-04-16T10:08:45.111Z,23.75
2019-04-16T10:11:19.262Z,23.00
2019-04-16T10:13:51.024Z,23.77
2019-04-16T10:16:24.961Z,24.02
2019-04-16T10:18:56.928Z,22.42
2019-04-16T10:21:29.335Z,24.30
2019-04-16T10:24:39.551Z,24.00
2019-04-16T10:27:16.810Z,23.73
2019-04-16T10:29:48.834Z,23.75
2019-04-16T10:32:20.811Z,23.95
2019-04-16T10:34:52.806Z,22.80
2019-04-16T10:37:24.766Z,23.47
2019-04-16T10:40:10.816Z,23.20
2019-04-16T10:43:05.054Z,21.55
2019-04-16T10:46:02.533Z,22.77
2019-04-16T10:49:06.281Z,21.07
2019-04-16T10:51:45.072Z,21.45
2019-04-16T10:54:39.208Z,22.22
2019-04-16T10:57:27.246Z,21.35
2019-04-16T11:00:17.722Z,19.67
2019-04-16T11:02:53.849Z,20.23
2019-04-16T11:06:03.154Z,18.42
2019-04-16T11:08:35.110Z,19.45
2019-04-16T11:11:07.091Z,18.57
2019-04-16T11:13:41.763Z,17.73
2019-04-16T11:16:15.923Z,15.10
2019-04-16T11:18:47.946Z,14.95
2019-04-16T11:21:19.930Z,16.02
2019-04-16T11:23:51.955Z,15.08
2019-04-16T11:26:24.020Z,16.37
2019-04-16T11:28:56.035Z,15.25
2019-04-16T11:31:28.153Z,14.38
2019-04-16T11:34:00.184Z,14.33
2019-04-16T11:36:32.169Z,13.35
2019-04-16T11:39:06.276Z,12.20
2019-04-16T11:41:38.243Z,12.15
2019-04-16T11:44:15.572Z,12.18
2019-04-16T11:46:44.145Z,14.58
2019-04-16T11:49:16.357Z,15.08
2019-04-16T11:51:48.512Z,15.45
2019-04-16T11:54:20.494Z,15.50
2019-04-16T11:56:55.267Z,15.32
2019-04-16T11:59:26.428Z,15.58
2019-04-16T12:02:17.794Z,15.15
2019-04-16T12:04:59.602Z,15.55
2019-04-16T12:07:53.975Z,13.48
2019-04-16T12:10:34.500Z,16.15
2019-04-16T12:13:21.781Z,15.98
2019-04-16T12:16:13.318Z,15.70
2019-04-16T12:19:04.075Z,16.32
2019-04-16T12:21:47.355Z,14.75
2019-04-16T12:24:48.041Z,15.75
2019-04-16T12:27:38.266Z,15.03
2019-04-16T12:30:28.391Z,14.23
2019-04-16T12:33:29.265Z,14.23
2019-04-16T12:36:20.879Z,14.75
2019-04-16T12:39:07.035Z,14.98
2019-04-16T12:41:54.058Z,14.87
2019-04-16T12:44:54.816Z,14.87
2019-04-16T12:47:42.881Z,13.90
2019-04-16T12:50:40.815Z,13.75
2019-04-16T12:53:31.013Z,12.73
2019-04-16T12:56:20.366Z,11.00
2019-04-16T12:58:59.952Z,12.88
2019-04-16T13:01:51.530Z,13.05
2019-04-16T13:04:45.711Z,12.37
2019-04-16T13:07:39.015Z,13.60
2019-04-16T13:10:32.684Z,13.00
2019-04-16T13:13:23.133Z,13.58
2019-04-16T13:16:03.548Z,13.60
2019-04-16T13:19:01.512Z,14.60
2019-04-16T13:21:38.066Z,14.43
2019-04-16T13:24:16.905Z,13.75
2019-04-16T13:27:11.440Z,12.82
2019-04-16T13:29:43.506Z,11.85
2019-04-16T13:32:15.505Z,10.35
2019-04-16T13:34:47.484Z,11.73
2019-04-16T13:37:19.447Z,11.48
2019-04-16T13:40:04.460Z,8.70
2019-04-16T13:42:36.641Z,9.58
2019-04-16T13:45:36.866Z,8.38
2019-04-16T13:48:27.595Z,8.20
2019-04-16T13:51:15.138Z,8.98
2019-04-16T13:53:52.615Z,9.43
2019-04-16T13:56:31.065Z,9.53
2019-04-16T13:59:22.589Z,9.73
2019-04-16T14:02:11.999Z,10.82
2019-04-16T14:04:45.747Z,10.00
2019-04-16T14:07:17.708Z,10.25
2019-04-16T14:09:49.713Z,10.38
2019-04-16T14:12:28.038Z,10.30
2019-04-16T14:14:55.625Z,10.15
2019-04-16T14:17:28.235Z,9.65
2019-04-16T14:20:00.223Z,9.93
2019-04-16T14:22:32.163Z,10.25
2019-04-16T14:25:06.053Z,9.63
2019-04-16T14:27:38.020Z,8.90
2019-04-16T14:30:14.427Z,9.98
2019-04-16T14:32:46.443Z,10.45
2019-04-16T14:35:32.892Z,10.20
2019-04-16T14:37:55.614Z,11.28
2019-04-16T14:40:27.867Z,11.48
2019-04-16T14:42:59.919Z,11.22
2019-04-16T14:45:57.753Z,10.00
2019-04-16T14:48:18.325Z,10.00
2019-04-16T14:50:50.330Z,9.63
2019-04-16T14:53:37.640Z,10.58
2019-04-16T14:56:17.422Z,9.88
2019-04-16T14:59:01.251Z,14.45
2019-04-16T15:02:04.809Z,12.55
2019-04-16T15:05:02.415Z,11.57
2019-04-16T15:07:48.218Z,11.20
2019-04-16T15:10:42.567Z,11.63
2019-04-16T15:13:34.166Z,12.50
2019-04-16T15:16:24.552Z,10.50
2019-04-16T15:19:15.128Z,12.30
2019-04-16T15:22:05.783Z,11.12
2019-04-16T15:24:52.311Z,11.43
2019-04-16T15:27:49.416Z,10.70
2019-04-16T15:31:00.742Z,10.58
2019-04-16T15:33:40.515Z,10.78
2019-04-16T15:36:35.426Z,11.12
2019-04-16T15:39:16.585Z,10.85
2019-04-16T15:42:06.758Z,10.38
2019-04-16T15:45:04.251Z,9.08
2019-04-16T15:47:59.232Z,9.18
2019-04-16T15:50:37.525Z,9.25
2019-04-16T15:53:34.999Z,9.30
2019-04-16T15:56:29.621Z,9.48
2019-04-16T15:59:21.222Z,9.35
2019-04-16T16:02:22.159Z,8.78
2019-04-16T16:05:05.506Z,9.63
2019-04-16T16:07:45.583Z,8.78
2019-04-16T16:10:19.800Z,7.47
2019-04-16T16:12:53.771Z,8.13
2019-04-16T16:15:25.769Z,8.55
2019-04-16T16:17:57.816Z,6.97
2019-04-16T16:20:30.298Z,7.17
2019-04-16T16:23:02.362Z,8.68
2019-04-16T16:25:34.592Z,8.58
2019-04-16T16:28:06.685Z,8.50
2019-04-16T16:30:38.735Z,8.00
2019-04-16T16:33:10.779Z,7.28
2019-04-16T16:35:57.055Z,7.55
2019-04-16T16:38:16.710Z,7.70
2019-04-16T16:40:49.701Z,8.13
2019-04-16T16:43:22.549Z,8.63
2019-04-16T16:46:14.142Z,8.00
2019-04-16T16:48:46.862Z,9.60
2019-04-16T16:51:18.860Z,8.83
2019-04-16T16:53:56.685Z,8.75
2019-04-16T16:56:48.112Z,7.95
2019-04-16T16:59:27.134Z,9.13
2019-04-16T17:02:20.729Z,8.40
2019-04-16T17:04:53.215Z,11.20
2019-04-16T17:07:25.247Z,10.13
2019-04-16T17:09:57.297Z,12.00
2019-04-16T17:12:30.428Z,10.82
2019-04-16T17:15:02.596Z,9.20
2019-04-16T17:17:34.625Z,7.15
2019-04-16T17:20:08.844Z,7.33
2019-04-16T17:22:41.085Z,7.30
2019-04-16T17:25:13.286Z,7.00
2019-04-16T17:27:51.570Z,9.10
2019-04-16T17:30:19.268Z,9.48
2019-04-16T17:32:51.267Z,9.38
2019-04-16T17:35:23.330Z,8.95
2019-04-16T17:37:55.407Z,8.43
2019-04-16T17:40:38.362Z,9.95
2019-04-16T17:43:16.152Z,10.23
2019-04-16T17:46:07.801Z,12.43
2019-04-16T17:48:57.594Z,10.58
2019-04-16T17:51:40.600Z,9.70
2019-04-16T17:54:41.034Z,8.60
2019-04-16T17:57:35.407Z,9.43
2019-04-16T18:00:40.867Z,8.60
2019-04-16T18:03:25.738Z,8.67
2019-04-16T18:06:19.821Z,7.40
2019-04-16T18:09:17.219Z,17.07
2019-04-16T18:12:07.419Z,15.63
2019-04-16T18:15:00.883Z,9.30
2019-04-16T18:18:01.338Z,8.40
2019-04-16T18:20:38.807Z,7.63
2019-04-16T18:23:29.670Z,8.87
2019-04-16T18:26:36.616Z,8.97
2019-04-16T18:29:16.379Z,10.37
2019-04-16T18:32:03.057Z,10.27
2019-04-16T18:34:54.175Z,10.05
2019-04-16T18:38:03.003Z,10.00
2019-04-16T18:40:45.532Z,9.83
2019-04-16T18:43:35.808Z,9.93
2019-04-16T18:46:27.077Z,8.93
2019-04-16T18:49:06.932Z,9.60
2019-04-16T18:51:38.997Z,9.53
2019-04-16T18:54:11.029Z,9.37
2019-04-16T18:56:43.063Z,9.87
2019-04-16T18:59:15.119Z,9.73
2019-04-16T19:01:49.500Z,10.17
2019-04-16T19:04:21.594Z,10.93
2019-04-16T19:06:53.698Z,10.83
2019-04-16T19:09:25.748Z,12.07
2019-04-16T19:11:57.813Z,11.17
2019-04-16T19:14:29.977Z,12.03
2019-04-16T19:17:04.114Z,18.67
2019-04-16T19:19:36.191Z,89.47
2019-04-16T19:22:08.383Z,85.93
2019-04-16T19:24:40.618Z,35.93
2019-04-16T19:27:12.656Z,15.50
2019-04-16T19:29:46.309Z,12.17
2019-04-16T19:32:18.365Z,13.33
2019-04-16T19:34:50.450Z,13.17
2019-04-16T19:37:24.783Z,12.97
2019-04-16T19:39:56.851Z,13.63
2019-04-16T19:42:29.674Z,14.20
2019-04-16T19:45:02.441Z,15.13
2019-04-16T19:47:37.615Z,14.33
2019-04-16T19:50:09.845Z,15.23
2019-04-16T19:52:45.488Z,13.43
2019-04-16T19:55:16.039Z,12.17
2019-04-16T19:57:48.476Z,11.40
2019-04-16T20:00:22.953Z,11.70
2019-04-16T20:02:58.822Z,12.50
2019-04-16T20:05:31.185Z,11.70
2019-04-16T20:08:03.362Z,11.77
2019-04-16T20:10:35.422Z,12.60
2019-04-16T20:13:07.444Z,12.47
2019-04-16T20:15:43.458Z,13.23
2019-04-16T20:18:14.706Z,13.03
2019-04-16T20:20:47.078Z,14.83
2019-04-16T20:23:24.757Z,16.27
2019-04-16T20:26:00.100Z,14.30
2019-04-16T20:28:30.712Z,13.47
2019-04-16T20:31:04.968Z,13.80
2019-04-16T20:33:38.066Z,14.30
2019-04-16T20:36:10.169Z,14.23
2019-04-16T20:38:42.192Z,13.20
2019-04-16T20:41:18.146Z,12.77
2019-04-16T20:43:48.242Z,13.27
2019-04-16T20:46:20.309Z,11.70
2019-04-16T20:49:06.517Z,10.73
2019-04-16T20:51:27.259Z,10.63
2019-04-16T20:53:59.435Z,10.33
2019-04-16T20:56:31.529Z,11.53
2019-04-16T20:59:05.228Z,10.97
2019-04-16T21:01:40.112Z,10.77
2019-04-16T21:04:12.123Z,10.57
2019-04-16T21:06:44.204Z,10.60
2019-04-16T21:09:16.236Z,10.33
2019-04-16T21:11:48.366Z,10.27
2019-04-16T21:14:21.833Z,10.93
2019-04-16T21:16:54.590Z,11.87
2019-04-16T21:19:46.671Z,18.03
2019-04-16T21:22:19.749Z,17.63
2019-04-16T21:24:51.783Z,16.57
2019-04-16T21:27:23.788Z,15.43
2019-04-16T21:29:55.760Z,12.63
2019-04-16T21:32:45.600Z,13.20
2019-04-16T21:35:23.433Z,12.17
2019-04-16T21:38:21.130Z,11.90
2019-04-16T21:40:56.444Z,11.80
2019-04-16T21:43:27.037Z,12.27
2019-04-16T21:46:01.762Z,11.93
2019-04-16T21:48:35.304Z,11.57
2019-04-16T21:51:07.712Z,11.90
2019-04-16T21:53:39.842Z,11.30
2019-04-16T21:56:11.847Z,11.87
2019-04-16T21:58:46.619Z,11.00
2019-04-16T22:01:46.386Z,12.30
2019-04-16T22:04:18.382Z,11.53
2019-04-16T22:06:52.546Z,10.70
2019-04-16T22:09:24.286Z,11.20
2019-04-16T22:11:56.540Z,12.10
2019-04-16T22:14:28.943Z,11.53
2019-04-16T22:17:04.196Z,11.60
2019-04-16T22:19:34.843Z,12.00
2019-04-16T22:22:07.530Z,12.63
2019-04-16T22:24:39.544Z,12.37
2019-04-16T22:27:11.612Z,11.00
2019-04-16T22:29:47.230Z,12.40
2019-04-16T22:32:17.504Z,13.43
2019-04-16T22:34:49.535Z,13.27
2019-04-16T22:37:21.502Z,12.97
2019-04-16T22:40:13.289Z,12.37
2019-04-16T22:43:07.037Z,11.90
2019-04-16T22:45:42.261Z,12.90
2019-04-16T22:48:14.254Z,12.30
2019-04-16T22:50:46.261Z,12.57
2019-04-16T22:53:19.438Z,12.30
2019-04-16T22:55:56.336Z,12.27
2019-04-16T22:58:27.563Z,13.50
2019-04-16T23:01:04.199Z,12.80
2019-04-16T23:03:36.301Z,13.00
2019-04-16T23:06:08.418Z,13.87
2019-04-16T23:08:43.341Z,14.27
2019-04-16T23:11:14.419Z,13.60
2019-04-16T23:13:46.396Z,14.33
2019-04-16T23:16:18.373Z,13.33
2019-04-16T23:18:50.372Z,13.33
2019-04-16T23:21:22.346Z,14.10
2019-04-16T23:23:54.300Z,12.83
2019-04-16T23:26:26.271Z,12.13
2019-04-16T23:28:58.626Z,12.00
2019-04-16T23:31:30.732Z,11.80
2019-04-16T23:34:06.105Z,13.00
2019-04-16T23:36:36.115Z,12.37
2019-04-16T23:39:08.060Z,12.43
2019-04-16T23:41:40.028Z,13.33
2019-04-16T23:44:28.845Z,13.13
2019-04-16T23:47:29.493Z,12.97
2019-04-16T23:50:21.409Z,13.60
2019-04-16T23:52:58.941Z,13.13
2019-04-16T23:55:49.985Z,14.27
2019-04-16T23:58:29.335Z,13.40
